RYR6002 EDJA-LBSF
Flight info
| Callsign | RYR6002 |
|---|---|
| Flight time | N/A |
| Altitude | 37000 |
| Route | KPT4B KPT Z999 BEMKI L607 XEBIX Z2 TUNUM Z204 GEDSO DCT MAGAM DCT VAL DCT NISVA |
| Aircraft | B738/M-SDE2E3FGHIRWXY/LB1 |
Departure
| Time | N/A |
|---|---|
| Airport | Memmingen Allgau Airport (EDJA) |
Arrival
| Time | 2026-05-03 21:22 |
|---|---|
| Airport | Sofia Airport (LBSF) |
| Time | Latitude | Longitude | Altitude | Speed | Heading |
|---|---|---|---|---|---|
| 2026-05-03 20:15 | 46.35862 | 14.43538 | 37103 ft | 479 kts | 112° |
| 2026-05-03 20:15 | 46.33229 | 14.52399 | 37106 ft | 479 kts | 112° |
| 2026-05-03 20:16 | 46.30588 | 14.61247 | 37104 ft | 479 kts | 112° |
| 2026-05-03 20:16 | 46.27962 | 14.70023 | 37110 ft | 479 kts | 112° |
| 2026-05-03 20:17 | 46.25310 | 14.78861 | 37111 ft | 480 kts | 112° |
| 2026-05-03 20:17 | 46.22647 | 14.87699 | 37087 ft | 480 kts | 112° |
| 2026-05-03 20:18 | 46.19978 | 14.96522 | 37104 ft | 480 kts | 112° |
| 2026-05-03 20:18 | 46.17299 | 15.05347 | 37079 ft | 480 kts | 112° |
| 2026-05-03 20:19 | 46.14629 | 15.14113 | 37087 ft | 481 kts | 112° |
| 2026-05-03 20:19 | 46.11935 | 15.22930 | 37093 ft | 481 kts | 112° |
| 2026-05-03 20:20 | 46.09230 | 15.31749 | 37101 ft | 481 kts | 112° |
| 2026-05-03 20:20 | 46.06520 | 15.40555 | 37099 ft | 481 kts | 112° |
| 2026-05-03 20:21 | 46.03819 | 15.49303 | 37098 ft | 481 kts | 112° |
| 2026-05-03 20:21 | 46.01095 | 15.58097 | 37098 ft | 481 kts | 112° |
| 2026-05-03 20:22 | 45.98368 | 15.66872 | 37102 ft | 480 kts | 112° |
| 2026-05-03 20:22 | 45.95499 | 15.75546 | 37102 ft | 481 kts | 116° |
| 2026-05-03 20:23 | 45.92352 | 15.84030 | 37097 ft | 481 kts | 117° |
| 2026-05-03 20:23 | 45.89189 | 15.92425 | 37100 ft | 481 kts | 117° |
| 2026-05-03 20:24 | 45.86032 | 16.00881 | 37111 ft | 480 kts | 116° |
| 2026-05-03 20:24 | 45.82894 | 16.09334 | 37101 ft | 480 kts | 116° |
| 2026-05-03 20:25 | 45.79756 | 16.17778 | 37099 ft | 480 kts | 116° |
| 2026-05-03 20:25 | 45.76633 | 16.26155 | 37102 ft | 480 kts | 116° |
| 2026-05-03 20:26 | 45.73479 | 16.34583 | 37109 ft | 480 kts | 116° |
| 2026-05-03 20:26 | 45.70320 | 16.42997 | 37094 ft | 480 kts | 116° |
| 2026-05-03 20:27 | 45.67155 | 16.51402 | 37094 ft | 480 kts | 116° |
| 2026-05-03 20:27 | 45.64009 | 16.59730 | 37095 ft | 479 kts | 116° |
| 2026-05-03 20:28 | 45.60835 | 16.68105 | 37104 ft | 480 kts | 116° |
| 2026-05-03 20:28 | 45.57654 | 16.76475 | 37098 ft | 480 kts | 116° |
| 2026-05-03 20:29 | 45.54468 | 16.84834 | 37099 ft | 479 kts | 116° |
| 2026-05-03 20:29 | 45.51297 | 16.93128 | 37100 ft | 479 kts | 116° |
| 2026-05-03 20:30 | 45.48098 | 17.01466 | 37112 ft | 480 kts | 115° |
| 2026-05-03 20:30 | 45.44892 | 17.09801 | 37112 ft | 480 kts | 115° |
| 2026-05-03 20:31 | 45.41680 | 17.18126 | 37111 ft | 480 kts | 115° |
| 2026-05-03 20:31 | 45.38482 | 17.26389 | 37116 ft | 480 kts | 115° |
| 2026-05-03 20:32 | 45.35252 | 17.34708 | 37134 ft | 481 kts | 115° |
| 2026-05-03 20:32 | 45.32015 | 17.43023 | 37130 ft | 481 kts | 115° |
| 2026-05-03 20:33 | 45.28776 | 17.51317 | 37112 ft | 480 kts | 115° |
| 2026-05-03 20:33 | 45.25556 | 17.59538 | 37124 ft | 479 kts | 115° |
| 2026-05-03 20:34 | 45.22311 | 17.67797 | 37133 ft | 479 kts | 115° |
| 2026-05-03 20:34 | 45.19060 | 17.76048 | 37131 ft | 479 kts | 115° |
| 2026-05-03 20:35 | 45.15804 | 17.84287 | 37139 ft | 479 kts | 115° |
| 2026-05-03 20:35 | 45.12564 | 17.92462 | 37135 ft | 479 kts | 115° |
| 2026-05-03 20:36 | 45.09296 | 18.00682 | 37133 ft | 479 kts | 115° |
| 2026-05-03 20:36 | 45.06024 | 18.08890 | 37141 ft | 479 kts | 115° |
| 2026-05-03 20:37 | 45.02745 | 18.17088 | 37136 ft | 479 kts | 115° |
| 2026-05-03 20:37 | 44.99483 | 18.25223 | 37139 ft | 479 kts | 115° |
| 2026-05-03 20:38 | 44.96192 | 18.33404 | 37150 ft | 479 kts | 115° |
| 2026-05-03 20:38 | 44.92897 | 18.41571 | 37143 ft | 478 kts | 115° |
| 2026-05-03 20:39 | 44.89601 | 18.49718 | 37151 ft | 478 kts | 115° |
| 2026-05-03 20:39 | 44.86323 | 18.57797 | 37177 ft | 478 kts | 115° |
| 2026-05-03 20:40 | 44.83016 | 18.65926 | 37157 ft | 478 kts | 115° |
| 2026-05-03 20:40 | 44.79703 | 18.74043 | 37150 ft | 478 kts | 115° |
| 2026-05-03 20:41 | 44.76387 | 18.82147 | 37154 ft | 478 kts | 115° |
| 2026-05-03 20:41 | 44.73063 | 18.90244 | 37162 ft | 478 kts | 115° |
| 2026-05-03 20:42 | 44.69758 | 18.98273 | 37157 ft | 478 kts | 116° |
| 2026-05-03 20:42 | 44.66422 | 19.06356 | 37159 ft | 478 kts | 116° |
| 2026-05-03 20:43 | 44.63080 | 19.14428 | 37159 ft | 478 kts | 116° |
| 2026-05-03 20:43 | 44.60297 | 19.21133 | 37184 ft | 478 kts | 116° |
| 2026-05-03 20:44 | 44.56399 | 19.30498 | 37162 ft | 478 kts | 116° |
| 2026-05-03 20:44 | 44.53040 | 19.38544 | 37164 ft | 478 kts | 116° |
| 2026-05-03 20:45 | 44.49677 | 19.46576 | 37171 ft | 478 kts | 116° |
| 2026-05-03 20:45 | 44.46878 | 19.53245 | 37176 ft | 478 kts | 116° |
| 2026-05-03 20:46 | 44.42959 | 19.62555 | 37167 ft | 478 kts | 116° |
| 2026-05-03 20:46 | 44.39580 | 19.70561 | 37163 ft | 478 kts | 116° |
| 2026-05-03 20:47 | 44.36765 | 19.77211 | 37161 ft | 478 kts | 116° |
| 2026-05-03 20:47 | 44.33377 | 19.85199 | 37175 ft | 478 kts | 116° |
| 2026-05-03 20:48 | 44.29390 | 19.94421 | 37167 ft | 477 kts | 117° |
| 2026-05-03 20:48 | 44.26466 | 20.01014 | 37164 ft | 477 kts | 117° |
| 2026-05-03 20:49 | 44.22997 | 20.08813 | 37160 ft | 476 kts | 117° |
| 2026-05-03 20:49 | 44.19514 | 20.16651 | 37173 ft | 476 kts | 117° |
| 2026-05-03 20:50 | 44.16034 | 20.24476 | 37174 ft | 474 kts | 117° |
| 2026-05-03 20:50 | 44.12560 | 20.32272 | 37151 ft | 474 kts | 117° |
| 2026-05-03 20:51 | 44.09106 | 20.40002 | 37171 ft | 474 kts | 117° |
| 2026-05-03 20:51 | 44.05621 | 20.47780 | 37186 ft | 473 kts | 117° |
| 2026-05-03 20:52 | 44.02137 | 20.55532 | 37184 ft | 473 kts | 117° |
| 2026-05-03 20:52 | 43.98650 | 20.63271 | 37175 ft | 472 kts | 117° |
| 2026-05-03 20:53 | 43.95163 | 20.70991 | 37209 ft | 472 kts | 117° |
| 2026-05-03 20:53 | 43.91691 | 20.78655 | 37188 ft | 472 kts | 117° |
| 2026-05-03 20:54 | 43.88195 | 20.86352 | 37185 ft | 472 kts | 117° |
| 2026-05-03 20:54 | 43.84693 | 20.94045 | 37067 ft | 474 kts | 117° |
| 2026-05-03 20:54 | 43.82926 | 20.97921 | 36718 ft | 475 kts | 117° |
| 2026-05-03 20:55 | 43.81159 | 21.01785 | 36351 ft | 475 kts | 117° |
| 2026-05-03 20:55 | 43.79393 | 21.05644 | 35943 ft | 474 kts | 117° |
| 2026-05-03 20:55 | 43.77647 | 21.09455 | 35520 ft | 475 kts | 117° |
| 2026-05-03 20:55 | 43.75878 | 21.13313 | 35100 ft | 476 kts | 117° |
| 2026-05-03 20:56 | 43.74105 | 21.17172 | 34680 ft | 473 kts | 117° |
| 2026-05-03 20:56 | 43.72348 | 21.20986 | 34255 ft | 467 kts | 116° |
| 2026-05-03 20:56 | 43.70615 | 21.24741 | 33787 ft | 460 kts | 116° |
| 2026-05-03 20:56 | 43.68902 | 21.28452 | 33384 ft | 459 kts | 116° |
| 2026-05-03 20:57 | 43.67181 | 21.32182 | 32977 ft | 461 kts | 116° |
| 2026-05-03 20:57 | 43.65459 | 21.35917 | 32553 ft | 462 kts | 116° |
| 2026-05-03 20:57 | 43.63737 | 21.39638 | 32132 ft | 458 kts | 116° |
| 2026-05-03 20:57 | 43.62030 | 21.43317 | 31726 ft | 453 kts | 116° |
| 2026-05-03 20:58 | 43.60363 | 21.46905 | 31337 ft | 448 kts | 116° |
| 2026-05-03 20:58 | 43.58690 | 21.50502 | 30952 ft | 443 kts | 115° |
| 2026-05-03 20:58 | 43.57031 | 21.54066 | 30563 ft | 439 kts | 115° |
| 2026-05-03 20:58 | 43.55386 | 21.57598 | 30223 ft | 438 kts | 115° |
| 2026-05-03 20:59 | 43.53721 | 21.61190 | 29782 ft | 453 kts | 115° |
| 2026-05-03 20:59 | 43.52010 | 21.64879 | 29306 ft | 459 kts | 115° |
| 2026-05-03 20:59 | 43.50288 | 21.68564 | 28855 ft | 455 kts | 115° |
| 2026-05-03 20:59 | 43.48598 | 21.72161 | 28437 ft | 451 kts | 115° |
| 2026-05-03 21:00 | 43.46903 | 21.75764 | 28010 ft | 447 kts | 115° |
| 2026-05-03 21:00 | 43.45765 | 21.78182 | 27719 ft | 444 kts | 115° |
| 2026-05-03 21:00 | 43.43551 | 21.82888 | 27161 ft | 440 kts | 115° |
| 2026-05-03 21:00 | 43.41891 | 21.86417 | 26753 ft | 438 kts | 115° |
| 2026-05-03 21:01 | 43.40239 | 21.89928 | 26338 ft | 437 kts | 115° |
| 2026-05-03 21:01 | 43.38590 | 21.93427 | 25914 ft | 435 kts | 115° |
| 2026-05-03 21:01 | 43.36950 | 21.96902 | 25504 ft | 432 kts | 115° |
| 2026-05-03 21:01 | 43.35320 | 22.00351 | 25107 ft | 430 kts | 115° |
| 2026-05-03 21:02 | 43.33695 | 22.03787 | 24704 ft | 428 kts | 115° |
| 2026-05-03 21:02 | 43.32096 | 22.07163 | 24303 ft | 426 kts | 115° |
| 2026-05-03 21:02 | 43.30482 | 22.10565 | 23900 ft | 424 kts | 115° |
| 2026-05-03 21:02 | 43.28876 | 22.13950 | 23500 ft | 422 kts | 115° |
| 2026-05-03 21:03 | 43.27286 | 22.17289 | 23010 ft | 414 kts | 115° |
| 2026-05-03 21:03 | 43.25728 | 22.20555 | 22614 ft | 404 kts | 115° |
| 2026-05-03 21:03 | 43.24198 | 22.23763 | 22198 ft | 400 kts | 115° |
| 2026-05-03 21:03 | 43.22676 | 22.26958 | 21819 ft | 399 kts | 115° |
| 2026-05-03 21:04 | 43.21160 | 22.30142 | 21421 ft | 398 kts | 115° |
| 2026-05-03 21:04 | 43.19668 | 22.33267 | 21064 ft | 396 kts | 115° |
| 2026-05-03 21:04 | 43.18159 | 22.36425 | 20670 ft | 396 kts | 116° |
| 2026-05-03 21:04 | 43.16653 | 22.39576 | 20287 ft | 396 kts | 116° |
| 2026-05-03 21:05 | 43.15144 | 22.42726 | 19913 ft | 395 kts | 116° |
| 2026-05-03 21:05 | 43.13638 | 22.45864 | 19526 ft | 394 kts | 116° |
| 2026-05-03 21:05 | 43.12133 | 22.48995 | 19137 ft | 393 kts | 116° |
| 2026-05-03 21:05 | 43.10635 | 22.52111 | 18734 ft | 392 kts | 117° |
| 2026-05-03 21:06 | 43.09138 | 22.55220 | 18337 ft | 390 kts | 117° |
| 2026-05-03 21:06 | 43.07649 | 22.58309 | 17904 ft | 388 kts | 117° |
| 2026-05-03 21:06 | 43.06187 | 22.61338 | 17512 ft | 385 kts | 117° |
| 2026-05-03 21:06 | 43.04716 | 22.64380 | 17107 ft | 382 kts | 117° |
| 2026-05-03 21:07 | 43.03260 | 22.67392 | 16729 ft | 378 kts | 117° |
| 2026-05-03 21:07 | 43.01817 | 22.70379 | 16390 ft | 375 kts | 117° |
| 2026-05-03 21:07 | 43.00382 | 22.73346 | 16003 ft | 373 kts | 117° |
| 2026-05-03 21:07 | 42.98956 | 22.76285 | 15617 ft | 369 kts | 118° |
| 2026-05-03 21:08 | 42.97550 | 22.79177 | 15237 ft | 362 kts | 118° |
| 2026-05-03 21:08 | 42.96209 | 22.82041 | 14896 ft | 354 kts | 116° |
| 2026-05-03 21:08 | 42.94959 | 22.84893 | 14580 ft | 346 kts | 115° |
| 2026-05-03 21:08 | 42.93772 | 22.87661 | 14269 ft | 340 kts | 115° |
| 2026-05-03 21:09 | 42.92591 | 22.90422 | 13955 ft | 335 kts | 115° |
| 2026-05-03 21:09 | 42.91423 | 22.93141 | 13603 ft | 330 kts | 115° |
| 2026-05-03 21:09 | 42.90266 | 22.95821 | 13266 ft | 325 kts | 115° |
| 2026-05-03 21:09 | 42.89124 | 22.98458 | 12980 ft | 322 kts | 116° |
| 2026-05-03 21:10 | 42.87987 | 23.01076 | 12672 ft | 320 kts | 116° |
| 2026-05-03 21:10 | 42.86852 | 23.03683 | 12364 ft | 319 kts | 116° |
| 2026-05-03 21:10 | 42.85721 | 23.06277 | 12066 ft | 318 kts | 117° |
| 2026-05-03 21:10 | 42.84593 | 23.08857 | 11762 ft | 316 kts | 117° |
| 2026-05-03 21:11 | 42.83484 | 23.11393 | 11466 ft | 315 kts | 117° |
| 2026-05-03 21:11 | 42.82365 | 23.13951 | 11178 ft | 314 kts | 117° |
| 2026-05-03 21:11 | 42.81243 | 23.16509 | 10881 ft | 314 kts | 117° |
| 2026-05-03 21:11 | 42.80130 | 23.19044 | 10578 ft | 310 kts | 117° |
| 2026-05-03 21:12 | 42.79029 | 23.21550 | 10166 ft | 309 kts | 117° |
| 2026-05-03 21:12 | 42.77937 | 23.24034 | 9822 ft | 301 kts | 117° |
| 2026-05-03 21:12 | 42.76892 | 23.26401 | 9856 ft | 277 kts | 117° |
| 2026-05-03 21:12 | 42.75931 | 23.28573 | 9773 ft | 260 kts | 116° |
| 2026-05-03 21:13 | 42.75038 | 23.30595 | 9661 ft | 246 kts | 116° |
| 2026-05-03 21:13 | 42.74172 | 23.32560 | 9322 ft | 241 kts | 116° |
| 2026-05-03 21:13 | 42.73308 | 23.34527 | 8880 ft | 242 kts | 117° |
| 2026-05-03 21:13 | 42.72446 | 23.36484 | 8475 ft | 241 kts | 117° |
| 2026-05-03 21:14 | 42.71591 | 23.38424 | 8100 ft | 238 kts | 117° |
| 2026-05-03 21:14 | 42.70743 | 23.40343 | 7658 ft | 237 kts | 117° |
| 2026-05-03 21:14 | 42.69909 | 23.42228 | 7410 ft | 228 kts | 117° |
| 2026-05-03 21:14 | 42.69099 | 23.44059 | 7075 ft | 225 kts | 117° |
| 2026-05-03 21:15 | 42.68296 | 23.45874 | 6689 ft | 224 kts | 117° |
| 2026-05-03 21:15 | 42.67508 | 23.47654 | 6282 ft | 222 kts | 118° |
| 2026-05-03 21:15 | 42.66710 | 23.49456 | 5848 ft | 223 kts | 118° |
| 2026-05-03 21:15 | 42.65909 | 23.51264 | 5438 ft | 223 kts | 119° |
| 2026-05-03 21:16 | 42.65111 | 23.53063 | 5135 ft | 219 kts | 119° |
| 2026-05-03 21:16 | 42.64333 | 23.54813 | 4950 ft | 216 kts | 119° |
| 2026-05-03 21:16 | 42.63556 | 23.56559 | 4773 ft | 216 kts | 120° |
| 2026-05-03 21:16 | 42.62778 | 23.58308 | 4610 ft | 217 kts | 120° |
| 2026-05-03 21:17 | 42.61994 | 23.60071 | 4428 ft | 220 kts | 119° |
| 2026-05-03 21:17 | 42.61599 | 23.61331 | 4284 ft | 220 kts | 99° |
| 2026-05-03 21:17 | 42.62039 | 23.63899 | 4042 ft | 214 kts | 51° |
| 2026-05-03 21:17 | 42.63209 | 23.65083 | 3866 ft | 211 kts | 19° |
| 2026-05-03 21:18 | 42.64652 | 23.65442 | 3717 ft | 212 kts | 3° |
| 2026-05-03 21:18 | 42.66097 | 23.65591 | 3708 ft | 204 kts | 0° |
| 2026-05-03 21:18 | 42.67424 | 23.65104 | 3720 ft | 201 kts | 323° |
| 2026-05-03 21:18 | 42.68229 | 23.63592 | 3731 ft | 203 kts | 288° |
| 2026-05-03 21:19 | 42.68444 | 23.61692 | 3728 ft | 205 kts | 275° |
| 2026-05-03 21:19 | 42.68573 | 23.59765 | 3706 ft | 202 kts | 275° |
| 2026-05-03 21:19 | 42.68684 | 23.57959 | 3709 ft | 182 kts | 275° |
| 2026-05-03 21:19 | 42.68782 | 23.56295 | 3581 ft | 174 kts | 275° |
| 2026-05-03 21:20 | 42.68875 | 23.54692 | 3328 ft | 172 kts | 274° |
| 2026-05-03 21:20 | 42.68970 | 23.53074 | 3130 ft | 168 kts | 274° |
| 2026-05-03 21:20 | 42.69063 | 23.51504 | 2888 ft | 164 kts | 275° |
| 2026-05-03 21:20 | 42.69155 | 23.49971 | 2706 ft | 162 kts | 275° |
| 2026-05-03 21:21 | 42.69246 | 23.48451 | 2542 ft | 161 kts | 275° |
| 2026-05-03 21:21 | 42.69349 | 23.46920 | 2298 ft | 161 kts | 275° |
| 2026-05-03 21:21 | 42.69433 | 23.45450 | 2078 ft | 151 kts | 274° |
| 2026-05-03 21:21 | 42.69513 | 23.44045 | 1839 ft | 149 kts | 274° |
| 2026-05-03 21:22 | 42.69581 | 23.42753 | 1742 ft | 125 kts | 274° |
| 2026-05-03 21:22 | 42.69643 | 23.41785 | 1750 ft | 81 kts | 275° |
| 2026-05-03 21:22 | 42.69676 | 23.41227 | 1748 ft | 37 kts | 272° |
| 2026-05-03 21:22 | 42.69657 | 23.40855 | 1743 ft | 39 kts | 244° |
| 2026-05-03 21:23 | 42.69594 | 23.40676 | 1744 ft | 10 kts | 244° |
| 2026-05-03 21:23 | 42.69564 | 23.40592 | 1748 ft | 10 kts | 244° |
| 2026-05-03 21:23 | 42.69531 | 23.40513 | 1748 ft | 9 kts | 229° |
| 2026-05-03 21:23 | 42.69473 | 23.40475 | 1748 ft | 9 kts | 198° |
| 2026-05-03 21:24 | 42.69412 | 23.40449 | 1744 ft | 9 kts | 197° |
| 2026-05-03 21:24 | 42.69353 | 23.40424 | 1745 ft | 9 kts | 197° |
| 2026-05-03 21:24 | 42.69295 | 23.40400 | 1743 ft | 9 kts | 197° |
| 2026-05-03 21:24 | 42.69238 | 23.40376 | 1744 ft | 8 kts | 197° |
| 2026-05-03 21:25 | 42.69184 | 23.40358 | 1743 ft | 7 kts | 172° |
| 2026-05-03 21:25 | 42.69145 | 23.40393 | 1748 ft | 7 kts | 117° |
| 2026-05-03 21:25 | 42.69127 | 23.40458 | 1745 ft | 8 kts | 110° |
| 2026-05-03 21:25 | 42.69105 | 23.40555 | 1740 ft | 14 kts | 104° |
| 2026-05-03 21:26 | 42.69056 | 23.40661 | 1748 ft | 4 kts | 189° |
| 2026-05-03 21:26 | 42.69026 | 23.40642 | 1746 ft | 6 kts | 202° |
| 2026-05-03 21:26 | 42.69009 | 23.40635 | 1745 ft | 0 kts | 197° |